Time;durP1;ratioP1;P1;durP2;ratioP2;P2;SDS_P1;SDS_P2;PMS_P1;PMS_P2;Temp;Humidity;BMP_temperature;BMP_pressure;BME280_temperature;BME280_humidity;BME280_pressure;Samples;Min_cycle;Max_cycle;Signal;HPM_P1;HPM_P2
2022/08/15 00:02:21;;;;;;;;;;;22.70;99.90;;;;;;5083002;28;20006;-76
2022/08/15 00:04:47;;;;;;;;;;;22.70;99.90;;;;;;5079469;28;19916;-76
2022/08/15 00:07:13;;;;;;;;;;;22.70;99.90;;;;;;5083288;28;19917;-75
2022/08/15 00:09:38;;;;;;;;;;;22.60;99.90;;;;;;5082221;28;19958;-76
2022/08/15 00:12:04;;;;;;;;;;;22.60;99.90;;;;;;5082582;28;19920;-76
2022/08/15 00:14:31;;;;;;;;;;;22.60;99.90;;;;;;5095387;28;19943;-74
2022/08/15 00:17:07;;;;;;;;;;;22.60;99.90;;;;;;5105143;28;19958;-77
2022/08/15 00:19:33;;;;;;;;;;;22.60;99.90;;;;;;5079502;28;20438;-77
2022/08/15 00:22:01;;;;;;;;;;;22.70;99.90;;;;;;5083990;28;19921;-77
2022/08/15 00:24:29;;;;;;;;;;;22.80;99.90;;;;;;5071832;28;20337;-75
2022/08/15 00:26:56;;;;;;;;;;;22.80;99.90;;;;;;5082235;28;20282;-76
2022/08/15 00:29:23;;;;;;;;;;;22.80;99.90;;;;;;5083615;28;19920;-76
2022/08/15 00:31:49;;;;;;;;;;;22.80;99.90;;;;;;5078122;28;19966;-75
2022/08/15 00:34:15;;;;;;;;;;;22.80;99.90;;;;;;5064972;28;19917;-75
2022/08/15 00:36:41;;;;;;;;;;;22.70;99.90;;;;;;5090123;28;19931;-75
2022/08/15 00:39:07;;;;;;;;;;;22.70;99.90;;;;;;5068131;28;19911;-76
2022/08/15 00:41:39;;;;;;;;;;;22.70;99.90;;;;;;5082322;28;20366;-76
2022/08/15 00:44:08;;;;;;;;;;;22.50;99.90;;;;;;5081919;28;20396;-75
2022/08/15 00:46:34;;;;;;;;;;;22.30;99.90;;;;;;5080299;28;19923;-74
2022/08/15 00:48:59;;;;;;;;;;;22.30;99.90;;;;;;5081815;28;19912;-76
2022/08/15 00:51:34;;;;;;;;;;;22.30;99.90;;;;;;5085133;28;20057;-76
2022/08/15 00:54:06;;;;;;;;;;;22.40;99.90;;;;;;5081113;28;19973;-76
2022/08/15 00:56:47;;;;;;;;;;;22.40;99.90;;;;;;5059998;28;20677;-76
2022/08/15 00:59:13;;;;;;;;;;;22.30;99.90;;;;;;5102361;28;20318;-75
2022/08/15 01:01:39;;;;;;;;;;;22.40;99.90;;;;;;5089374;28;19958;-75
2022/08/15 01:04:07;;;;;;;;;;;22.40;99.90;;;;;;5079545;28;19912;-75
2022/08/15 01:06:36;;;;;;;;;;;22.50;99.90;;;;;;5081448;28;20379;-76
2022/08/15 01:09:03;;;;;;;;;;;22.50;99.90;;;;;;5078760;28;19912;-75
2022/08/15 01:11:34;;;;;;;;;;;22.40;99.90;;;;;;5079658;28;19913;-75
2022/08/15 01:14:01;;;;;;;;;;;22.40;99.90;;;;;;5064156;28;19913;-76
2022/08/15 01:16:27;;;;;;;;;;;22.30;99.90;;;;;;5081320;28;19966;-75
2022/08/15 01:18:53;;;;;;;;;;;22.30;99.90;;;;;;5079023;28;20400;-75
2022/08/15 01:21:40;;;;;;;;;;;22.20;99.90;;;;;;5083256;28;19916;-76
2022/08/15 01:24:29;;;;;;;;;;;22.20;99.90;;;;;;5076125;28;19912;-75
2022/08/15 01:26:55;;;;;;;;;;;22.10;99.90;;;;;;5051571;28;19912;-76
2022/08/15 01:29:21;;;;;;;;;;;22.10;99.90;;;;;;5093737;28;19923;-75
2022/08/15 01:31:47;;;;;;;;;;;22.10;99.90;;;;;;5081651;28;19943;-76
2022/08/15 01:34:13;;;;;;;;;;;22.00;99.90;;;;;;5066333;28;19912;-75
2022/08/15 01:36:39;;;;;;;;;;;22.00;99.90;;;;;;5077713;28;20106;-75
2022/08/15 01:39:09;;;;;;;;;;;21.80;99.90;;;;;;5081473;28;20528;-75
2022/08/15 01:41:38;;;;;;;;;;;21.80;99.90;;;;;;5093332;27;19920;-75
2022/08/15 01:44:18;;;;;;;;;;;21.80;99.90;;;;;;5108693;28;19920;-76
2022/08/15 01:46:50;;;;;;;;;;;21.90;99.90;;;;;;5103522;28;19931;-74
2022/08/15 01:49:21;;;;;;;;;;;21.90;99.90;;;;;;5095565;27;19916;-76
2022/08/15 01:51:48;;;;;;;;;;;22.00;99.90;;;;;;5079152;28;20149;-76
2022/08/15 01:54:14;;;;;;;;;;;22.00;99.90;;;;;;5066212;28;19912;-75
2022/08/15 01:56:41;;;;;;;;;;;22.10;99.90;;;;;;5081043;28;20401;-78
2022/08/15 01:59:10;;;;;;;;;;;22.20;99.90;;;;;;5060893;28;19916;-75
2022/08/15 02:01:55;;;;;;;;;;;22.20;99.90;;;;;;5080881;28;20396;-77
2022/08/15 02:04:23;;;;;;;;;;;22.30;99.90;;;;;;5078987;28;19919;-77
2022/08/15 02:06:48;;;;;;;;;;;22.20;99.90;;;;;;5079376;28;19924;-76
2022/08/15 02:09:17;;;;;;;;;;;22.10;99.90;;;;;;5079046;28;20033;-75
2022/08/15 02:11:44;;;;;;;;;;;22.00;99.90;;;;;;5077879;28;19912;-76
2022/08/15 02:14:11;;;;;;;;;;;22.00;99.90;;;;;;5084133;28;19955;-74
2022/08/15 02:16:37;;;;;;;;;;;22.00;99.90;;;;;;5081349;28;19924;-74
2022/08/15 02:19:04;;;;;;;;;;;22.10;99.90;;;;;;5078847;28;19973;-75
2022/08/15 02:21:30;;;;;;;;;;;22.10;99.90;;;;;;5083359;28;20284;-76
2022/08/15 02:23:57;;;;;;;;;;;22.20;99.90;;;;;;5079086;28;19912;-75
2022/08/15 02:26:23;;;;;;;;;;;22.10;99.90;;;;;;5061862;28;19951;-75
2022/08/15 02:28:49;;;;;;;;;;;22.10;99.90;;;;;;5061614;28;20009;-76
2022/08/15 02:31:16;;;;;;;;;;;22.20;99.90;;;;;;5075229;28;19919;-75
2022/08/15 02:33:48;;;;;;;;;;;22.20;99.90;;;;;;5077458;28;22188;-75
2022/08/15 02:36:16;;;;;;;;;;;22.20;99.90;;;;;;5080498;28;20050;-75
2022/08/15 02:38:41;;;;;;;;;;;22.20;99.90;;;;;;5076492;28;20297;-75
2022/08/15 02:41:07;;;;;;;;;;;22.20;99.90;;;;;;5080316;28;19912;-75
2022/08/15 02:43:32;;;;;;;;;;;22.10;99.90;;;;;;5086466;28;19908;-76
2022/08/15 02:46:00;;;;;;;;;;;22.00;99.90;;;;;;5079788;28;20317;-74
2022/08/15 02:48:25;;;;;;;;;;;22.00;99.90;;;;;;5082267;28;20018;-74
2022/08/15 02:50:53;;;;;;;;;;;22.00;99.90;;;;;;5066220;28;20034;-74
2022/08/15 02:53:19;;;;;;;;;;;22.10;99.90;;;;;;5082301;28;20006;-75
2022/08/15 02:55:46;;;;;;;;;;;22.10;99.90;;;;;;5081921;28;19919;-76
2022/08/15 02:58:12;;;;;;;;;;;22.10;99.90;;;;;;5082853;28;20351;-76
2022/08/15 03:00:39;;;;;;;;;;;22.10;99.90;;;;;;5082449;28;19958;-74
2022/08/15 03:03:06;;;;;;;;;;;22.00;99.90;;;;;;5078579;28;20003;-76
2022/08/15 03:05:32;;;;;;;;;;;22.00;99.90;;;;;;5078302;28;20346;-76
2022/08/15 03:07:58;;;;;;;;;;;21.90;99.90;;;;;;5081173;28;19919;-75
2022/08/15 03:10:24;;;;;;;;;;;22.00;99.90;;;;;;5079460;28;19913;-76
2022/08/15 03:12:57;;;;;;;;;;;22.00;99.90;;;;;;5076918;28;20766;-75
2022/08/15 03:15:24;;;;;;;;;;;21.90;99.90;;;;;;5092864;28;19918;-76
2022/08/15 03:17:51;;;;;;;;;;;21.90;99.90;;;;;;5090165;28;20588;-75
2022/08/15 03:20:18;;;;;;;;;;;22.00;99.90;;;;;;5056625;28;20011;-75
2022/08/15 03:22:45;;;;;;;;;;;22.00;99.90;;;;;;5078320;28;21630;-75
2022/08/15 03:25:12;;;;;;;;;;;22.10;99.90;;;;;;5083689;28;20325;-76
2022/08/15 03:27:39;;;;;;;;;;;22.10;99.90;;;;;;5080243;28;19922;-75
2022/08/15 03:30:07;;;;;;;;;;;22.10;99.90;;;;;;5082292;28;19912;-75
2022/08/15 03:32:40;;;;;;;;;;;22.00;99.90;;;;;;5078499;28;19989;-76
2022/08/15 03:35:06;;;;;;;;;;;22.00;99.90;;;;;;5081456;28;19952;-76
2022/08/15 03:37:32;;;;;;;;;;;22.00;99.90;;;;;;5079132;28;19970;-75
2022/08/15 03:39:58;;;;;;;;;;;22.00;99.90;;;;;;5080503;28;19952;-75
2022/08/15 03:42:25;;;;;;;;;;;22.10;99.90;;;;;;5081811;28;19936;-75
2022/08/15 03:44:51;;;;;;;;;;;22.20;99.90;;;;;;5081515;28;19916;-75
2022/08/15 03:47:16;;;;;;;;;;;22.10;99.90;;;;;;5092123;28;19926;-75
2022/08/15 03:49:42;;;;;;;;;;;22.20;99.90;;;;;;5079384;28;20001;-76
2022/08/15 03:52:08;;;;;;;;;;;22.20;99.90;;;;;;5058442;28;19921;-76
2022/08/15 03:54:35;;;;;;;;;;;22.30;99.90;;;;;;5077978;28;19995;-75
2022/08/15 03:57:00;;;;;;;;;;;22.30;99.90;;;;;;5077176;28;19924;-75
2022/08/15 03:59:26;;;;;;;;;;;22.10;99.90;;;;;;5080204;28;19919;-75
2022/08/15 04:01:51;;;;;;;;;;;22.10;99.90;;;;;;5079060;28;19912;-77
2022/08/15 04:04:17;;;;;;;;;;;22.00;99.90;;;;;;5081184;28;20179;-75
2022/08/15 04:06:43;;;;;;;;;;;21.90;99.90;;;;;;5080405;28;19924;-76
2022/08/15 04:09:10;;;;;;;;;;;21.90;99.90;;;;;;5100459;28;19920;-75
2022/08/15 04:11:35;;;;;;;;;;;22.00;99.90;;;;;;5078880;28;19917;-76
2022/08/15 04:14:02;;;;;;;;;;;22.10;99.90;;;;;;5076635;28;19990;-75
2022/08/15 04:16:27;;;;;;;;;;;22.20;99.90;;;;;;5081943;28;19920;-75
2022/08/15 04:18:53;;;;;;;;;;;22.30;99.90;;;;;;5077721;28;19928;-76
2022/08/15 04:21:19;;;;;;;;;;;22.40;99.90;;;;;;5082008;28;19912;-76
2022/08/15 04:23:45;;;;;;;;;;;22.50;99.90;;;;;;5069256;28;20491;-76
2022/08/15 04:26:11;;;;;;;;;;;22.50;99.90;;;;;;5092014;28;19952;-75
2022/08/15 04:28:37;;;;;;;;;;;22.60;99.90;;;;;;5084227;28;19959;-74
2022/08/15 04:31:05;;;;;;;;;;;22.60;99.90;;;;;;5101633;28;20304;-74
2022/08/15 04:33:32;;;;;;;;;;;22.70;99.90;;;;;;5100715;28;19923;-74
2022/08/15 04:36:02;;;;;;;;;;;22.70;99.90;;;;;;5113750;27;19911;-76
2022/08/15 04:38:28;;;;;;;;;;;22.80;99.90;;;;;;5095215;28;19915;-76
2022/08/15 04:40:54;;;;;;;;;;;22.70;99.90;;;;;;5081894;28;19912;-76
2022/08/15 04:43:21;;;;;;;;;;;22.80;99.90;;;;;;5089337;28;19912;-75
2022/08/15 04:45:47;;;;;;;;;;;22.80;99.90;;;;;;5084610;28;20530;-76
2022/08/15 04:48:15;;;;;;;;;;;22.80;99.90;;;;;;5105187;28;19963;-75
2022/08/15 04:50:42;;;;;;;;;;;22.90;99.90;;;;;;5095329;28;19919;-75
2022/08/15 04:53:08;;;;;;;;;;;22.90;99.90;;;;;;5094874;28;19947;-75
2022/08/15 04:55:35;;;;;;;;;;;22.90;99.90;;;;;;5093036;28;19920;-76
2022/08/15 04:58:00;;;;;;;;;;;22.90;99.90;;;;;;5092931;28;19920;-76
2022/08/15 05:00:28;;;;;;;;;;;23.00;99.90;;;;;;5094263;28;20242;-74
2022/08/15 05:02:58;;;;;;;;;;;23.00;99.90;;;;;;5093406;28;19908;-75
2022/08/15 05:05:24;;;;;;;;;;;23.00;99.90;;;;;;5104606;28;19912;-75
2022/08/15 05:07:49;;;;;;;;;;;23.00;99.90;;;;;;5111964;28;20277;-76
2022/08/15 05:10:16;;;;;;;;;;;23.10;99.90;;;;;;5113153;28;19929;-74
2022/08/15 05:12:42;;;;;;;;;;;23.10;99.90;;;;;;5107060;28;19920;-75
2022/08/15 05:15:08;;;;;;;;;;;23.20;99.90;;;;;;5066505;28;19923;-75
2022/08/15 05:17:34;;;;;;;;;;;23.30;99.90;;;;;;5085492;28;19916;-76
2022/08/15 05:20:00;;;;;;;;;;;23.30;99.90;;;;;;5082667;28;20003;-76
2022/08/15 05:22:25;;;;;;;;;;;23.30;99.90;;;;;;5085146;28;19935;-76
2022/08/15 05:24:51;;;;;;;;;;;23.30;99.90;;;;;;5082633;28;19913;-76
2022/08/15 05:27:16;;;;;;;;;;;23.40;99.90;;;;;;5082256;28;19924;-76
2022/08/15 05:29:42;;;;;;;;;;;23.40;99.90;;;;;;5092880;28;19928;-76
2022/08/15 05:32:08;;;;;;;;;;;23.40;99.90;;;;;;5106392;28;19916;-75
2022/08/15 05:34:34;;;;;;;;;;;23.50;99.90;;;;;;5107500;28;19949;-75
2022/08/15 05:37:01;;;;;;;;;;;23.50;99.90;;;;;;5112454;28;19912;-76
2022/08/15 05:39:31;;;;;;;;;;;23.70;99.90;;;;;;5109346;28;19971;-77
2022/08/15 05:42:13;;;;;;;;;;;23.70;99.90;;;;;;5112448;28;19954;-75
2022/08/15 05:44:54;;;;;;;;;;;23.80;99.90;;;;;;5091701;28;19912;-76
2022/08/15 05:47:22;;;;;;;;;;;23.90;99.90;;;;;;5101245;28;19957;-75
2022/08/15 05:49:51;;;;;;;;;;;24.00;99.90;;;;;;5082065;28;20285;-74
2022/08/15 05:52:23;;;;;;;;;;;24.10;99.90;;;;;;5082708;28;19966;-75
2022/08/15 05:54:51;;;;;;;;;;;24.20;99.90;;;;;;5082974;28;19992;-75
2022/08/15 05:57:28;;;;;;;;;;;24.20;99.90;;;;;;5081887;28;19931;-76
2022/08/15 05:59:59;;;;;;;;;;;24.10;99.90;;;;;;5101281;28;19955;-76
2022/08/15 06:02:32;;;;;;;;;;;24.00;99.90;;;;;;5080133;28;20337;-77
2022/08/15 06:05:27;;;;;;;;;;;24.00;99.90;;;;;;5085395;28;19958;-75
2022/08/15 06:07:54;;;;;;;;;;;24.00;99.90;;;;;;5074662;28;19916;-76
2022/08/15 06:10:25;;;;;;;;;;;24.10;99.90;;;;;;5089116;28;19920;-77
2022/08/15 06:12:51;;;;;;;;;;;24.10;99.90;;;;;;5082884;28;20007;-76
2022/08/15 06:15:20;;;;;;;;;;;24.20;99.90;;;;;;5080777;28;19920;-75
2022/08/15 06:17:52;;;;;;;;;;;24.20;99.90;;;;;;5079137;28;19935;-75
2022/08/15 06:20:19;;;;;;;;;;;24.20;99.90;;;;;;5082590;28;19912;-75
2022/08/15 06:22:56;;;;;;;;;;;24.20;99.90;;;;;;5079681;28;19924;-75
2022/08/15 06:25:31;;;;;;;;;;;24.30;99.90;;;;;;5086025;28;19919;-77
2022/08/15 06:27:59;;;;;;;;;;;24.40;99.90;;;;;;5079795;28;19959;-76
2022/08/15 06:30:27;;;;;;;;;;;24.50;99.90;;;;;;5078406;28;19912;-79
2022/08/15 06:33:22;;;;;;;;;;;24.70;99.90;;;;;;5078273;28;19920;-77
2022/08/15 06:35:58;;;;;;;;;;;24.90;99.90;;;;;;5076401;28;19911;-77
2022/08/15 06:38:29;;;;;;;;;;;25.00;99.90;;;;;;5059651;28;19920;-76
2022/08/15 06:41:01;;;;;;;;;;;25.10;99.90;;;;;;5099076;28;19912;-75
2022/08/15 06:43:27;;;;;;;;;;;25.20;99.90;;;;;;5080874;28;20305;-76
2022/08/15 06:45:54;;;;;;;;;;;25.40;99.90;;;;;;5090288;28;20010;-75
2022/08/15 06:48:21;;;;;;;;;;;25.50;99.90;;;;;;5077104;28;20254;-79
2022/08/15 06:50:49;;;;;;;;;;;25.60;99.90;;;;;;5078727;28;19927;-77
2022/08/15 06:53:20;;;;;;;;;;;25.80;99.90;;;;;;5079931;28;19926;-77
2022/08/15 06:56:02;;;;;;;;;;;25.90;99.90;;;;;;5084715;28;19923;-77
2022/08/15 06:58:40;;;;;;;;;;;25.90;99.90;;;;;;5066736;28;20404;-76
2022/08/15 07:01:14;;;;;;;;;;;26.00;99.90;;;;;;5095372;28;19916;-78
2022/08/15 07:03:50;;;;;;;;;;;26.00;99.90;;;;;;5080396;28;20404;-76
2022/08/15 07:06:19;;;;;;;;;;;26.00;99.90;;;;;;5081697;28;20800;-79
2022/08/15 07:08:48;;;;;;;;;;;26.10;99.90;;;;;;5081678;28;19963;-77
2022/08/15 07:11:24;;;;;;;;;;;26.20;99.90;;;;;;5080986;28;19985;-80
2022/08/15 07:13:59;;;;;;;;;;;26.20;99.90;;;;;;5079381;28;19912;-78
2022/08/15 07:16:38;;;;;;;;;;;26.20;99.90;;;;;;5076508;28;19936;-77
2022/08/15 07:19:04;;;;;;;;;;;26.20;99.90;;;;;;5094432;28;19974;-77
2022/08/15 07:21:30;;;;;;;;;;;26.20;99.90;;;;;;5079561;28;19967;-76
2022/08/15 07:24:15;;;;;;;;;;;26.30;99.90;;;;;;5079323;28;19916;-77
2022/08/15 07:26:50;;;;;;;;;;;26.50;99.90;;;;;;5079530;28;19977;-77
2022/08/15 07:29:24;;;;;;;;;;;26.60;99.90;;;;;;5081212;28;19927;-78
2022/08/15 07:31:50;;;;;;;;;;;26.80;99.90;;;;;;5092169;28;19940;-77
2022/08/15 07:34:18;;;;;;;;;;;26.90;99.90;;;;;;5090906;28;19977;-76
2022/08/15 07:36:54;;;;;;;;;;;27.10;99.90;;;;;;5089275;28;20455;-76
2022/08/15 07:39:24;;;;;;;;;;;27.30;99.90;;;;;;5091598;28;19947;-76
2022/08/15 07:41:49;;;;;;;;;;;27.50;99.90;;;;;;5098008;28;19922;-67
2022/08/15 07:44:20;;;;;;;;;;;27.50;99.90;;;;;;5091402;28;19912;-68
2022/08/15 07:47:09;;;;;;;;;;;27.50;99.90;;;;;;5097029;28;19932;-68
2022/08/15 07:49:37;;;;;;;;;;;27.50;99.90;;;;;;5079881;28;19986;-66
2022/08/15 07:52:24;;;;;;;;;;;27.50;99.90;;;;;;5086259;28;20390;-68
2022/08/15 07:54:55;;;;;;;;;;;27.50;99.90;;;;;;5089406;28;19995;-69
2022/08/15 07:57:28;;;;;;;;;;;27.90;99.90;;;;;;5087456;28;19912;-68
2022/08/15 08:00:08;;;;;;;;;;;28.30;99.90;;;;;;5094532;28;19915;-67
2022/08/15 08:02:40;;;;;;;;;;;28.60;99.90;;;;;;5086135;28;19919;-65
2022/08/15 08:05:06;;;;;;;;;;;28.90;99.90;;;;;;5103930;28;19919;-68
2022/08/15 08:07:35;;;;;;;;;;;29.20;99.90;;;;;;5100294;28;19935;-67
2022/08/15 08:10:11;;;;;;;;;;;29.30;99.90;;;;;;5100965;28;19919;-66
2022/08/15 08:12:45;;;;;;;;;;;29.40;99.90;;;;;;5096581;28;20026;-67
2022/08/15 08:15:20;;;;;;;;;;;29.40;99.90;;;;;;5089451;28;19908;-67
2022/08/15 08:18:05;;;;;;;;;;;29.10;99.90;;;;;;5088113;28;19917;-66
2022/08/15 08:20:50;;;;;;;;;;;29.20;99.90;;;;;;5086352;28;19913;-67
2022/08/15 08:23:30;;;;;;;;;;;29.30;99.90;;;;;;5090571;28;20006;-68
2022/08/15 08:25:55;;;;;;;;;;;29.40;99.90;;;;;;5101214;28;19995;-65
2022/08/15 08:28:30;;;;;;;;;;;29.60;99.90;;;;;;5091183;28;20388;-65
2022/08/15 08:31:02;;;;;;;;;;;29.50;99.90;;;;;;5087117;28;20380;-68
2022/08/15 08:33:46;;;;;;;;;;;29.50;99.90;;;;;;5092168;28;20221;-66
2022/08/15 08:36:41;;;;;;;;;;;29.40;99.90;;;;;;5101035;28;19912;-65
2022/08/15 08:39:10;;;;;;;;;;;29.20;99.90;;;;;;5074630;28;20288;-67
2022/08/15 08:41:40;;;;;;;;;;;29.10;99.90;;;;;;5093427;28;19934;-66
2022/08/15 08:44:25;;;;;;;;;;;29.10;99.90;;;;;;5087556;28;19919;-67
2022/08/15 08:47:10;;;;;;;;;;;29.10;99.90;;;;;;5092016;28;19923;-67
2022/08/15 08:49:45;;;;;;;;;;;28.90;99.90;;;;;;5095322;28;20338;-67
2022/08/15 08:52:19;;;;;;;;;;;28.60;99.90;;;;;;5104378;28;19920;-68
2022/08/15 08:54:53;;;;;;;;;;;28.40;99.90;;;;;;5095961;28;19935;-68
2022/08/15 08:57:23;;;;;;;;;;;28.00;99.90;;;;;;5095600;28;19916;-68
2022/08/15 08:59:53;;;;;;;;;;;27.90;99.90;;;;;;5103130;28;19912;-67
2022/08/15 09:02:27;;;;;;;;;;;27.90;99.90;;;;;;5098515;28;19916;-68
2022/08/15 09:04:59;;;;;;;;;;;27.80;99.90;;;;;;5107927;28;19926;-68
2022/08/15 09:07:28;;;;;;;;;;;27.80;99.90;;;;;;5106727;28;19912;-71
2022/08/15 09:09:56;;;;;;;;;;;27.70;99.90;;;;;;5094984;28;19912;-69
2022/08/15 09:15:14;;;;;;;;;;;27.70;99.90;;;;;;5093831;28;20241;-69
2022/08/15 09:17:41;;;;;;;;;;;27.70;99.90;;;;;;5097292;28;19961;-70
2022/08/15 09:20:17;;;;;;;;;;;27.70;99.90;;;;;;5100825;28;20214;-71
2022/08/15 09:22:43;;;;;;;;;;;27.70;99.90;;;;;;5101195;28;19927;-70
2022/08/15 09:25:09;;;;;;;;;;;27.70;99.90;;;;;;5081918;28;19965;-70
2022/08/15 09:27:34;;;;;;;;;;;27.80;99.90;;;;;;5108677;28;19912;-71
2022/08/15 09:30:18;;;;;;;;;;;27.90;99.90;;;;;;5092446;28;19934;-72
2022/08/15 09:33:02;;;;;;;;;;;27.90;99.90;;;;;;5110088;27;19920;-65
2022/08/15 09:35:43;;;;;;;;;;;27.80;99.90;;;;;;5100345;28;19911;-66
2022/08/15 09:38:21;;;;;;;;;;;28.00;99.90;;;;;;5088045;28;20295;-67
2022/08/15 09:41:09;;;;;;;;;;;28.00;99.90;;;;;;5107089;28;19923;-66
2022/08/15 09:43:37;;;;;;;;;;;27.90;99.90;;;;;;5105057;28;19919;-67
2022/08/15 09:46:09;;;;;;;;;;;27.80;99.90;;;;;;5100223;28;20377;-66
2022/08/15 09:48:53;;;;;;;;;;;27.70;99.90;;;;;;5098330;28;19919;-67
2022/08/15 09:51:19;;;;;;;;;;;27.70;99.90;;;;;;5079740;28;19948;-66
2022/08/15 09:53:47;;;;;;;;;;;27.90;99.90;;;;;;5080191;28;19979;-67
2022/08/15 09:56:17;;;;;;;;;;;28.00;99.90;;;;;;5082049;28;19916;-67
2022/08/15 09:58:54;;;;;;;;;;;27.90;99.90;;;;;;5102607;28;20411;-66
2022/08/15 10:01:23;;;;;;;;;;;28.00;99.90;;;;;;5078898;28;19923;-67
2022/08/15 10:03:50;;;;;;;;;;;28.10;99.90;;;;;;5079922;28;19982;-67
2022/08/15 10:06:23;;;;;;;;;;;28.10;99.90;;;;;;5078998;28;19920;-68
2022/08/15 10:08:55;;;;;;;;;;;28.00;99.90;;;;;;5082346;28;20520;-67
2022/08/15 10:11:30;;;;;;;;;;;28.00;99.90;;;;;;5076914;28;19912;-66
2022/08/15 10:14:05;;;;;;;;;;;28.30;99.90;;;;;;5082268;28;19912;-68
2022/08/15 10:16:36;;;;;;;;;;;28.30;99.90;;;;;;5082364;28;20015;-66
2022/08/15 10:19:02;;;;;;;;;;;28.20;99.90;;;;;;5091522;28;19923;-69
2022/08/15 10:21:32;;;;;;;;;;;28.20;99.90;;;;;;5082860;28;19912;-65
2022/08/15 10:23:59;;;;;;;;;;;28.10;99.90;;;;;;5090907;28;19939;-69
2022/08/15 10:26:24;;;;;;;;;;;28.10;99.90;;;;;;5087482;28;20441;-68
2022/08/15 10:28:56;;;;;;;;;;;28.10;99.90;;;;;;5096642;28;20430;-67
2022/08/15 10:31:26;;;;;;;;;;;28.20;99.90;;;;;;5084248;28;19942;-67
2022/08/15 10:33:53;;;;;;;;;;;28.30;99.90;;;;;;5092241;28;19916;-67
2022/08/15 10:36:23;;;;;;;;;;;28.50;99.90;;;;;;5099967;28;19978;-66
2022/08/15 10:39:15;;;;;;;;;;;28.50;99.90;;;;;;5089997;28;19977;-67
2022/08/15 10:41:59;;;;;;;;;;;28.40;99.90;;;;;;5067762;28;19919;-66
2022/08/15 10:44:25;;;;;;;;;;;28.20;99.90;;;;;;5089576;28;19951;-67
2022/08/15 10:47:05;;;;;;;;;;;28.10;99.90;;;;;;5094539;28;20376;-68
2022/08/15 10:49:35;;;;;;;;;;;28.00;99.90;;;;;;5094790;28;19911;-67
2022/08/15 10:52:08;;;;;;;;;;;28.10;99.90;;;;;;5098424;28;19916;-68
2022/08/15 10:54:43;;;;;;;;;;;27.90;99.90;;;;;;5064917;28;19912;-67
2022/08/15 10:57:10;;;;;;;;;;;28.10;99.90;;;;;;5099927;28;19959;-67
2022/08/15 10:59:37;;;;;;;;;;;28.00;99.90;;;;;;5089421;28;19958;-68
2022/08/15 11:02:09;;;;;;;;;;;28.10;99.90;;;;;;5090482;28;19927;-66
2022/08/15 11:04:36;;;;;;;;;;;28.10;99.90;;;;;;5089551;28;20385;-68
2022/08/15 11:07:21;;;;;;;;;;;28.10;99.90;;;;;;5091256;28;19912;-67
2022/08/15 11:09:57;;;;;;;;;;;28.00;99.90;;;;;;5086139;28;19920;-66
2022/08/15 11:12:26;;;;;;;;;;;28.20;99.90;;;;;;5085784;28;19912;-67
2022/08/15 11:14:59;;;;;;;;;;;28.20;99.90;;;;;;5091253;28;20361;-67
2022/08/15 11:17:27;;;;;;;;;;;28.20;99.90;;;;;;5090760;28;20275;-67
2022/08/15 11:19:58;;;;;;;;;;;28.30;99.90;;;;;;5090559;28;19934;-67
2022/08/15 11:22:28;;;;;;;;;;;28.30;99.90;;;;;;5086694;28;20557;-67
2022/08/15 11:24:56;;;;;;;;;;;28.40;99.90;;;;;;5084936;28;19915;-67
2022/08/15 11:27:24;;;;;;;;;;;28.50;99.90;;;;;;5088919;28;19919;-66
2022/08/15 11:29:51;;;;;;;;;;;28.60;99.90;;;;;;5073112;28;19985;-66
2022/08/15 11:32:28;;;;;;;;;;;28.60;99.90;;;;;;5101105;28;20150;-69
2022/08/15 11:34:54;;;;;;;;;;;28.50;99.90;;;;;;5092464;28;19912;-67
2022/08/15 11:37:30;;;;;;;;;;;28.40;99.90;;;;;;5091901;28;19931;-68
2022/08/15 11:39:58;;;;;;;;;;;28.10;99.90;;;;;;5095580;28;20895;-68
2022/08/15 11:42:25;;;;;;;;;;;28.00;99.90;;;;;;5108250;28;19916;-67
2022/08/15 11:44:53;;;;;;;;;;;28.00;99.90;;;;;;5081455;28;19912;-66
2022/08/15 11:47:19;;;;;;;;;;;28.10;99.90;;;;;;5084221;28;19919;-67
2022/08/15 11:49:50;;;;;;;;;;;28.30;99.90;;;;;;5078679;28;19911;-66
2022/08/15 11:52:22;;;;;;;;;;;28.50;99.90;;;;;;5091931;28;19916;-66
2022/08/15 11:55:07;;;;;;;;;;;28.60;99.90;;;;;;5100163;28;20003;-67
2022/08/15 11:57:38;;;;;;;;;;;28.60;99.90;;;;;;5094465;28;19938;-67
2022/08/15 12:00:08;;;;;;;;;;;28.40;99.90;;;;;;5102553;28;19987;-66
2022/08/15 12:02:33;;;;;;;;;;;28.30;99.90;;;;;;5075155;28;19956;-68
2022/08/15 12:05:08;;;;;;;;;;;28.10;99.90;;;;;;5097162;28;19919;-68
2022/08/15 12:07:41;;;;;;;;;;;28.10;99.90;;;;;;5094766;28;19920;-67
2022/08/15 12:10:15;;;;;;;;;;;27.90;99.90;;;;;;5104071;28;19923;-66
2022/08/15 12:12:42;;;;;;;;;;;27.70;99.90;;;;;;5097209;28;19916;-66
2022/08/15 12:15:19;;;;;;;;;;;27.60;99.90;;;;;;5097487;28;19916;-67
2022/08/15 12:18:00;;;;;;;;;;;27.60;99.90;;;;;;5104951;28;20324;-67
2022/08/15 12:20:47;;;;;;;;;;;27.70;99.90;;;;;;5105104;28;19912;-67
2022/08/15 12:23:28;;;;;;;;;;;27.50;99.90;;;;;;5094192;28;19916;-68
2022/08/15 12:25:58;;;;;;;;;;;27.80;99.90;;;;;;5078275;28;19916;-67
2022/08/15 12:28:25;;;;;;;;;;;27.90;99.90;;;;;;5106557;28;19958;-67
2022/08/15 12:30:56;;;;;;;;;;;27.80;99.90;;;;;;5095565;28;20361;-67
2022/08/15 12:33:23;;;;;;;;;;;27.80;99.90;;;;;;5095675;28;20010;-68
2022/08/15 12:35:49;;;;;;;;;;;27.50;99.90;;;;;;5101518;28;19916;-68
2022/08/15 12:38:15;;;;;;;;;;;27.60;99.90;;;;;;5091458;28;20003;-69
2022/08/15 12:40:41;;;;;;;;;;;27.80;99.90;;;;;;5098030;28;20405;-69
2022/08/15 12:43:07;;;;;;;;;;;27.80;99.90;;;;;;5094845;28;20185;-69
2022/08/15 12:45:32;;;;;;;;;;;27.90;99.90;;;;;;5102966;28;19911;-68
2022/08/15 12:47:58;;;;;;;;;;;27.90;99.90;;;;;;5103739;28;20288;-68
2022/08/15 12:50:23;;;;;;;;;;;28.00;99.90;;;;;;5092917;28;19916;-68
2022/08/15 12:52:49;;;;;;;;;;;27.90;99.90;;;;;;5074756;28;19919;-68
2022/08/15 12:55:15;;;;;;;;;;;28.00;99.90;;;;;;5090374;28;20124;-68
2022/08/15 12:57:40;;;;;;;;;;;28.30;99.90;;;;;;5100347;28;19995;-68
2022/08/15 13:00:07;;;;;;;;;;;28.80;99.90;;;;;;5092820;28;19919;-69
2022/08/15 13:02:37;;;;;;;;;;;29.00;99.90;;;;;;5094253;28;19909;-68
2022/08/15 13:05:05;;;;;;;;;;;29.10;99.90;;;;;;5099160;28;19908;-69
2022/08/15 13:07:31;;;;;;;;;;;29.20;99.90;;;;;;5106815;28;19935;-67
2022/08/15 13:09:56;;;;;;;;;;;29.40;99.90;;;;;;5094918;28;19908;-69
2022/08/15 13:12:22;;;;;;;;;;;29.60;99.90;;;;;;5100207;28;19916;-68
2022/08/15 13:14:47;;;;;;;;;;;29.70;99.90;;;;;;5102600;28;19907;-68
2022/08/15 13:17:14;;;;;;;;;;;29.90;99.90;;;;;;5104826;28;20481;-68
2022/08/15 13:25:19;;;;;;;;;;;29.80;99.90;;;;;;5091101;28;20065;-70
2022/08/15 13:27:47;;;;;;;;;;;30.00;99.90;;;;;;5096001;28;19912;-69
2022/08/15 13:30:14;;;;;;;;;;;30.10;99.90;;;;;;5091730;28;19919;-70
2022/08/15 13:32:40;;;;;;;;;;;29.70;99.90;;;;;;5091573;28;20270;-69
2022/08/15 13:35:10;;;;;;;;;;;29.60;99.90;;;;;;5086630;28;19919;-68
2022/08/15 13:37:37;;;;;;;;;;;29.70;99.90;;;;;;5084893;28;19912;-69
2022/08/15 13:40:03;;;;;;;;;;;29.70;99.90;;;;;;5092582;28;20378;-68
2022/08/15 13:42:29;;;;;;;;;;;29.80;99.90;;;;;;5072220;28;19916;-69
2022/08/15 13:44:55;;;;;;;;;;;29.80;99.90;;;;;;5110566;28;19923;-69
2022/08/15 13:47:23;;;;;;;;;;;30.00;99.90;;;;;;5112961;28;19908;-68
2022/08/15 13:49:49;;;;;;;;;;;30.30;99.90;;;;;;5100577;28;19918;-67
2022/08/15 13:52:15;;;;;;;;;;;30.30;99.90;;;;;;5097575;28;19919;-68
2022/08/15 13:54:41;;;;;;;;;;;30.40;99.90;;;;;;5096945;28;19908;-67
2022/08/15 13:57:07;;;;;;;;;;;30.60;99.90;;;;;;5073432;28;19936;-70
2022/08/15 13:59:33;;;;;;;;;;;30.90;99.90;;;;;;5084079;28;19923;-67
2022/08/15 14:01:59;;;;;;;;;;;31.10;99.90;;;;;;5094094;28;20233;-68
2022/08/15 14:04:26;;;;;;;;;;;31.20;99.90;;;;;;5112449;28;20391;-68
2022/08/15 14:06:53;;;;;;;;;;;31.40;99.90;;;;;;5099317;28;19912;-68
2022/08/15 14:09:19;;;;;;;;;;;31.30;99.90;;;;;;5095253;28;19955;-71
2022/08/15 14:11:45;;;;;;;;;;;31.00;99.90;;;;;;5094064;28;20050;-69
2022/08/15 14:14:11;;;;;;;;;;;30.90;99.90;;;;;;5101780;28;20349;-68
2022/08/15 14:16:38;;;;;;;;;;;30.60;99.90;;;;;;5093645;28;20288;-68
2022/08/15 14:19:05;;;;;;;;;;;30.60;99.90;;;;;;5090758;28;19924;-69
2022/08/15 14:21:32;;;;;;;;;;;30.70;99.90;;;;;;5089809;28;19949;-70
2022/08/15 14:23:58;;;;;;;;;;;30.90;99.90;;;;;;5071224;28;19920;-69
2022/08/15 14:26:25;;;;;;;;;;;31.00;99.90;;;;;;5089331;28;20277;-68
2022/08/15 14:28:53;;;;;;;;;;;30.90;99.90;;;;;;5072087;28;19913;-68
2022/08/15 14:31:19;;;;;;;;;;;30.90;99.90;;;;;;5084627;28;20029;-68
2022/08/15 14:33:45;;;;;;;;;;;30.50;99.90;;;;;;5090990;28;19959;-69
2022/08/15 14:36:15;;;;;;;;;;;30.50;99.90;;;;;;5094239;28;19912;-70
2022/08/15 14:38:41;;;;;;;;;;;30.30;99.90;;;;;;5071443;28;19916;-69
2022/08/15 14:41:10;;;;;;;;;;;30.30;99.90;;;;;;5093984;28;19990;-69